Shosei Maru — JD2993 — position and weather

sailwx.info

Track history (hours):
 
Tides and Currents Weather Stations Pressure Air Temp Water Temp Dewpoint Dewpoint Depression Visibility Wind Speed Wind Dir Waves Ship Positions

Shosei Maru

Last reported at 2018-Jul-16 19:22 UTC. Time now 2018-Jul-16 19:49 UTC.
Position N 34°38' E 135°27'.

Length 68 m; draft 4 m.

Type: Cargo ship. MMSI: 431001108.

Date/timePositionNaut miles runAvg speedWind from/ knotsBaromVisibWave heightAir tempDewpointWater temp
2018-Jul-16 19:22N 34°38' E 135°27'0 0.0
2018-Jul-16 17:10N 34°38' E 135°27'0 0.0
2018-Jul-16 16:40N 34°38' E 135°27'0 0.0
2018-Jul-16 16:22N 34°38' E 135°27'0 0.0
2018-Jul-16 15:52N 34°38' E 135°27'0 0.0
2018-Jul-16 13:07N 34°38' E 135°27'0 0.0
2018-Jul-16 12:40N 34°38' E 135°27'0 0.0
2018-Jul-16 12:22N 34°38' E 135°27'0 0.0
2018-Jul-16 11:52N 34°38' E 135°27'0 0.0
2018-Jul-16 11:28N 34°38' E 135°27'0 0.0
2018-Jul-16 10:55N 34°38' E 135°27'0 0.0
2018-Jul-16 10:22N 34°38' E 135°27'0 0.0
2018-Jul-16 09:58N 34°38' E 135°27'0 0.0
2018-Jul-16 09:28N 34°38' E 135°27'0 0.0
2018-Jul-16 08:34N 34°38' E 135°27'0 0.0
2018-Jul-16 08:04N 34°38' E 135°27'0 0.0
2018-Jul-16 07:58N 34°38' E 135°27'0 0.0
2018-Jul-16 07:28N 34°38' E 135°27'0 0.0
2018-Jul-16 06:58N 34°38' E 135°27'0 0.0
2018-Jul-16 06:28N 34°38' E 135°27'0 0.0
2018-Jul-16 05:58N 34°38' E 135°27'0 0.0
2018-Jul-16 05:28N 34°38' E 135°27'0 0.0
2018-Jul-16 04:04N 34°38' E 135°27'0 0.0
2018-Jul-16 03:40N 34°38' E 135°27'0 0.1
2018-Jul-16 03:28N 34°38' E 135°27'0 0.0
2018-Jul-16 02:58N 34°38' E 135°27'0 0.0
2018-Jul-16 02:22N 34°38' E 135°27'0 0.0
2018-Jul-16 00:52N 34°38' E 135°27'0 0.0
2018-Jul-16 00:22N 34°38' E 135°27'0 0.0
2018-Jul-15 23:46N 34°38' E 135°27'0 0.0
2018-Jul-15 23:16N 34°38' E 135°27'0 0.0
2018-Jul-15 22:52N 34°38' E 135°27'0 0.0
2018-Jul-15 22:16N 34°38' E 135°27'0 0.0
2018-Jul-15 21:52N 34°38' E 135°27'0 0.0
2018-Jul-15 21:22N 34°38' E 135°27'0 0.0
2018-Jul-15 19:46N 34°38' E 135°27'0 0.0
2018-Jul-15 19:22N 34°38' E 135°27'0 0.0
2018-Jul-15 18:52N 34°38' E 135°27'0 0.1
2018-Jul-15 18:28N 34°38' E 135°27'0 0.1
2018-Jul-15 17:58N 34°38' E 135°27'0 0.0
2018-Jul-15 17:22N 34°38' E 135°27'0 0.6
2018-Jul-15 17:00N 34°38' E 135°27'4 8.6
2018-Jul-15 16:30N 34°37' E 135°22'510.8
2018-Jul-15 16:00N 34°33' E 135°17'611.4
2018-Jul-15 15:30N 34°28' E 135°13'611.1
2018-Jul-15 15:00N 34°24' E 135°09'611.3
2018-Jul-15 14:30N 34°20' E 135°05'611.4
2018-Jul-15 14:00N 34°14' E 135°03'612.2
2018-Jul-15 13:30N 34°08' E 135°03'611.9
2018-Jul-15 12:58N 34°02' E 135°03'611.8
2018-Jul-15 12:29N 33°56' E 135°03'207 9.6
2018-Jul-14 14:50N 34°48' E 139°06'411.8
2018-Jul-14 14:30N 34°51' E 139°09'1710.0
2018-Jul-14 12:47N 34°59' E 139°27'3 9.2
2018-Jul-14 12:25N 35°01' E 139°31'410.3
2018-Jul-14 11:59N 35°04' E 139°35'511.1
2018-Jul-14 11:30N 35°07' E 139°40'510.9
2018-Jul-14 11:00N 35°11' E 139°45'510.5
2018-Jul-14 10:30N 35°16' E 139°46'510.8
2018-Jul-14 10:01N 35°21' E 139°42'510.2
2018-Jul-14 09:30N 35°25' E 139°45'510.1
2018-Jul-14 09:00N 35°23' E 139°50'3 0.1
2018-Jul-13 02:39N 35°22' E 139°54'1 8.3
2018-Jul-13 02:30N 35°22' E 139°52'611.7
2018-Jul-13 02:00N 35°25' E 139°46'611.1
2018-Jul-13 01:30N 35°28' E 139°40'1 2.1
2018-Jul-13 01:00N 35°29' E 139°39'0 0.0
2018-Jul-13 00:30N 35°29' E 139°39'0 0.0
2018-Jul-13 00:00N 35°29' E 139°39'0 0.0
2018-Jul-12 23:30N 35°29' E 139°39'0 0.0
2018-Jul-12 22:57N 35°29' E 139°39'1 1.9
2018-Jul-12 22:31N 35°28' E 139°40'2 4.1
2018-Jul-12 22:00N 35°27' E 139°42'0 0.0
2018-Jul-12 21:30N 35°27' E 139°42'0 0.1
2018-Jul-12 21:00N 35°27' E 139°42'0 0.0
2018-Jul-12 20:30N 35°27' E 139°42'0 0.0
2018-Jul-12 20:00N 35°27' E 139°42'0 0.1
2018-Jul-12 19:30N 35°27' E 139°42'0 0.0
2018-Jul-12 19:00N 35°27' E 139°42'0 0.0
2018-Jul-12 18:30N 35°27' E 139°42'0 0.1
2018-Jul-12 18:00N 35°27' E 139°42'0 0.0
2018-Jul-12 17:27N 35°27' E 139°42'0 0.1
2018-Jul-12 17:00N 35°27' E 139°42'0 0.1
2018-Jul-12 16:30N 35°27' E 139°42'0 0.0
2018-Jul-12 16:00N 35°27' E 139°42'0 0.1
2018-Jul-12 15:30N 35°27' E 139°42'0 0.0
2018-Jul-12 15:00N 35°27' E 139°42'0 0.0
2018-Jul-12 14:30N 35°27' E 139°42'0 0.0
2018-Jul-12 14:00N 35°27' E 139°42'0 0.0
2018-Jul-12 13:30N 35°27' E 139°42'0 0.0
2018-Jul-12 13:00N 35°27' E 139°42'0 0.0
2018-Jul-12 12:30N 35°27' E 139°42'0 0.1
2018-Jul-12 12:00N 35°27' E 139°42'0 0.0
2018-Jul-12 11:27N 35°27' E 139°42'0 0.0
2018-Jul-12 11:00N 35°27' E 139°42'0 0.0
2018-Jul-12 10:27N 35°27' E 139°42'0 0.0
2018-Jul-12 09:57N 35°27' E 139°42'0 0.0
2018-Jul-12 09:30N 35°27' E 139°42'0 0.0
2018-Jul-12 09:00N 35°27' E 139°42'0 0.1
2018-Jul-12 08:30N 35°27' E 139°42'0 0.0
2018-Jul-12 08:00N 35°27' E 139°42'0 0.6
2018-Jul-12 07:31N 35°27' E 139°43'610.7
2018-Jul-12 06:59N 35°29' E 139°49'3 0.3
2018-Jul-11 18:54N 35°30' E 139°53'510.7
2018-Jul-11 18:26N 35°26' E 139°49'410.2
2018-Jul-11 18:00N 35°23' E 139°46'510.1
2018-Jul-11 17:30N 35°18' E 139°45'510.6
2018-Jul-11 17:00N 35°13' E 139°47'510.9
2018-Jul-11 16:30N 35°08' E 139°46'510.2
2018-Jul-11 16:00N 35°03' E 139°42'510.8
2018-Jul-11 15:30N 34°60' E 139°37'236 9.7
2018-Jul-10 15:10N 33°54' E 135°02'211.5
2018-Jul-10 15:00N 33°56' E 135°02'511.1
2018-Jul-10 14:30N 34°01' E 135°02'911.2
2018-Jul-10 13:41N 34°10' E 135°02'211.4
2018-Jul-10 13:30N 34°12' E 135°02'611.1
2018-Jul-10 13:00N 34°18' E 135°04'511.0
2018-Jul-10 12:30N 34°22' E 135°07'510.8
2018-Jul-10 12:00N 34°27' E 135°11'510.3
2018-Jul-10 11:30N 34°31' E 135°15'510.6
2018-Jul-10 11:00N 34°35' E 135°19'510.6
2018-Jul-10 10:30N 34°38' E 135°24'3 6.3
2018-Jul-10 09:59N 34°38' E 135°28'0 0.0
2018-Jul-10 00:22N 34°38' E 135°28'0 0.0
2018-Jul-09 23:58N 34°38' E 135°28'0 0.0
2018-Jul-09 22:34N 34°38' E 135°28'0 0.0
2018-Jul-09 22:28N 34°38' E 135°28'0 0.0
2018-Jul-09 21:22N 34°38' E 135°28'0 0.0
2018-Jul-09 20:52N 34°38' E 135°28'0 0.0
2018-Jul-09 20:28N 34°38' E 135°28'0 0.0
2018-Jul-09 19:58N 34°38' E 135°28'0 0.0
2018-Jul-09 19:22N 34°38' E 135°28'0 0.0
2018-Jul-09 18:58N 34°38' E 135°28'0 0.0
2018-Jul-09 18:28N 34°38' E 135°28'0 0.0
2018-Jul-09 17:52N 34°38' E 135°28'0 0.0
2018-Jul-09 17:28N 34°38' E 135°28'0 0.0
2018-Jul-09 16:58N 34°38' E 135°28'0 0.0
2018-Jul-09 16:28N 34°38' E 135°28'0 0.0
2018-Jul-09 15:58N 34°38' E 135°28'0 0.0
2018-Jul-09 15:28N 34°38' E 135°28'0 0.0
2018-Jul-09 14:40N 34°38' E 135°28'0 0.0
2018-Jul-09 14:16N 34°38' E 135°28'0 0.0
2018-Jul-09 13:58N 34°38' E 135°28'0 0.0
2018-Jul-09 13:28N 34°38' E 135°28'0 0.0
2018-Jul-09 12:28N 34°38' E 135°28'0 0.0
2018-Jul-09 07:16N 34°38' E 135°28'0 0.0
2018-Jul-09 06:55N 34°38' E 135°28'3 6.2
2018-Jul-09 06:30N 34°39' E 135°25'510.0
2018-Jul-09 06:00N 34°35' E 135°21'4 0.1
2018-Jul-07 23:20N 34°31' E 135°24'1 1.9
2018-Jul-07 23:00N 34°31' E 135°23'2 3.0
2018-Jul-07 22:23N 34°32' E 135°22'0 0.0
2018-Jul-07 21:59N 34°32' E 135°22'2 2.2
2018-Jul-07 20:57N 34°31' E 135°19'510.8
2018-Jul-07 20:30N 34°29' E 135°14'611.2
2018-Jul-07 19:56N 34°24' E 135°09'511.8
2018-Jul-07 19:29N 34°20' E 135°05'611.7
2018-Jul-07 19:00N 34°14' E 135°02'612.0
2018-Jul-07 18:30N 34°08' E 135°02'811.9
2018-Jul-07 17:51N 34°01' E 135°02'  
Track history (hours):
 
Tides and Currents Weather Stations Pressure Air Temp Water Temp Dewpoint Dewpoint Depression Visibility Wind Speed Wind Dir Waves Ship Positions

Shosei Maru

Last reported at 2018-Jul-16 19:22 UTC. Time now 2018-Jul-16 19:49 UTC.
Position N 34°38' E 135°27'.

Length 68 m; draft 4 m.

Type: Cargo ship. MMSI: 431001108.

Date/timePositionNaut miles runAvg speedWind from/ knotsBaromVisibWave heightAir tempDewpointWater temp
2018-Jul-16 19:22N 34°38' E 135°27'0 0.0
2018-Jul-16 17:10N 34°38' E 135°27'0 0.0
2018-Jul-16 16:40N 34°38' E 135°27'0 0.0
2018-Jul-16 16:22N 34°38' E 135°27'0 0.0
2018-Jul-16 15:52N 34°38' E 135°27'0 0.0
2018-Jul-16 13:07N 34°38' E 135°27'0 0.0
2018-Jul-16 12:40N 34°38' E 135°27'0 0.0
2018-Jul-16 12:22N 34°38' E 135°27'0 0.0
2018-Jul-16 11:52N 34°38' E 135°27'0 0.0
2018-Jul-16 11:28N 34°38' E 135°27'0 0.0
2018-Jul-16 10:55N 34°38' E 135°27'0 0.0
2018-Jul-16 10:22N 34°38' E 135°27'0 0.0
2018-Jul-16 09:58N 34°38' E 135°27'0 0.0
2018-Jul-16 09:28N 34°38' E 135°27'0 0.0
2018-Jul-16 08:34N 34°38' E 135°27'0 0.0
2018-Jul-16 08:04N 34°38' E 135°27'0 0.0
2018-Jul-16 07:58N 34°38' E 135°27'0 0.0
2018-Jul-16 07:28N 34°38' E 135°27'0 0.0
2018-Jul-16 06:58N 34°38' E 135°27'0 0.0
2018-Jul-16 06:28N 34°38' E 135°27'0 0.0
2018-Jul-16 05:58N 34°38' E 135°27'0 0.0
2018-Jul-16 05:28N 34°38' E 135°27'0 0.0
2018-Jul-16 04:04N 34°38' E 135°27'0 0.0
2018-Jul-16 03:40N 34°38' E 135°27'0 0.1
2018-Jul-16 03:28N 34°38' E 135°27'0 0.0
2018-Jul-16 02:58N 34°38' E 135°27'0 0.0
2018-Jul-16 02:22N 34°38' E 135°27'0 0.0
2018-Jul-16 00:52N 34°38' E 135°27'0 0.0
2018-Jul-16 00:22N 34°38' E 135°27'0 0.0
2018-Jul-15 23:46N 34°38' E 135°27'0 0.0
2018-Jul-15 23:16N 34°38' E 135°27'0 0.0
2018-Jul-15 22:52N 34°38' E 135°27'0 0.0
2018-Jul-15 22:16N 34°38' E 135°27'0 0.0
2018-Jul-15 21:52N 34°38' E 135°27'0 0.0
2018-Jul-15 21:22N 34°38' E 135°27'0 0.0
2018-Jul-15 19:46N 34°38' E 135°27'0 0.0
2018-Jul-15 19:22N 34°38' E 135°27'0 0.0
2018-Jul-15 18:52N 34°38' E 135°27'0 0.1
2018-Jul-15 18:28N 34°38' E 135°27'0 0.1
2018-Jul-15 17:58N 34°38' E 135°27'0 0.0
2018-Jul-15 17:22N 34°38' E 135°27'0 0.6
2018-Jul-15 17:00N 34°38' E 135°27'4 8.6
2018-Jul-15 16:30N 34°37' E 135°22'510.8
2018-Jul-15 16:00N 34°33' E 135°17'611.4
2018-Jul-15 15:30N 34°28' E 135°13'611.1
2018-Jul-15 15:00N 34°24' E 135°09'611.3
2018-Jul-15 14:30N 34°20' E 135°05'611.4
2018-Jul-15 14:00N 34°14' E 135°03'612.2
2018-Jul-15 13:30N 34°08' E 135°03'611.9
2018-Jul-15 12:58N 34°02' E 135°03'611.8
2018-Jul-15 12:29N 33°56' E 135°03'207 9.6
2018-Jul-14 14:50N 34°48' E 139°06'411.8
2018-Jul-14 14:30N 34°51' E 139°09'1710.0
2018-Jul-14 12:47N 34°59' E 139°27'3 9.2
2018-Jul-14 12:25N 35°01' E 139°31'410.3
2018-Jul-14 11:59N 35°04' E 139°35'511.1
2018-Jul-14 11:30N 35°07' E 139°40'510.9
2018-Jul-14 11:00N 35°11' E 139°45'510.5
2018-Jul-14 10:30N 35°16' E 139°46'510.8
2018-Jul-14 10:01N 35°21' E 139°42'510.2
2018-Jul-14 09:30N 35°25' E 139°45'510.1
2018-Jul-14 09:00N 35°23' E 139°50'3 0.1
2018-Jul-13 02:39N 35°22' E 139°54'1 8.3
2018-Jul-13 02:30N 35°22' E 139°52'611.7
2018-Jul-13 02:00N 35°25' E 139°46'611.1
2018-Jul-13 01:30N 35°28' E 139°40'1 2.1
2018-Jul-13 01:00N 35°29' E 139°39'0 0.0
2018-Jul-13 00:30N 35°29' E 139°39'0 0.0
2018-Jul-13 00:00N 35°29' E 139°39'0 0.0
2018-Jul-12 23:30N 35°29' E 139°39'0 0.0
2018-Jul-12 22:57N 35°29' E 139°39'1 1.9
2018-Jul-12 22:31N 35°28' E 139°40'2 4.1
2018-Jul-12 22:00N 35°27' E 139°42'0 0.0
2018-Jul-12 21:30N 35°27' E 139°42'0 0.1
2018-Jul-12 21:00N 35°27' E 139°42'0 0.0
2018-Jul-12 20:30N 35°27' E 139°42'0 0.0
2018-Jul-12 20:00N 35°27' E 139°42'0 0.1
2018-Jul-12 19:30N 35°27' E 139°42'0 0.0
2018-Jul-12 19:00N 35°27' E 139°42'0 0.0
2018-Jul-12 18:30N 35°27' E 139°42'0 0.1
2018-Jul-12 18:00N 35°27' E 139°42'0 0.0
2018-Jul-12 17:27N 35°27' E 139°42'0 0.1
2018-Jul-12 17:00N 35°27' E 139°42'0 0.1
2018-Jul-12 16:30N 35°27' E 139°42'0 0.0
2018-Jul-12 16:00N 35°27' E 139°42'0 0.1
2018-Jul-12 15:30N 35°27' E 139°42'0 0.0
2018-Jul-12 15:00N 35°27' E 139°42'0 0.0
2018-Jul-12 14:30N 35°27' E 139°42'0 0.0
2018-Jul-12 14:00N 35°27' E 139°42'0 0.0
2018-Jul-12 13:30N 35°27' E 139°42'0 0.0
2018-Jul-12 13:00N 35°27' E 139°42'0 0.0
2018-Jul-12 12:30N 35°27' E 139°42'0 0.1
2018-Jul-12 12:00N 35°27' E 139°42'0 0.0
2018-Jul-12 11:27N 35°27' E 139°42'0 0.0
2018-Jul-12 11:00N 35°27' E 139°42'0 0.0
2018-Jul-12 10:27N 35°27' E 139°42'0 0.0
2018-Jul-12 09:57N 35°27' E 139°42'0 0.0
2018-Jul-12 09:30N 35°27' E 139°42'0 0.0
2018-Jul-12 09:00N 35°27' E 139°42'0 0.1
2018-Jul-12 08:30N 35°27' E 139°42'0 0.0
2018-Jul-12 08:00N 35°27' E 139°42'0 0.6
2018-Jul-12 07:31N 35°27' E 139°43'610.7
2018-Jul-12 06:59N 35°29' E 139°49'3 0.3
2018-Jul-11 18:54N 35°30' E 139°53'510.7
2018-Jul-11 18:26N 35°26' E 139°49'410.2
2018-Jul-11 18:00N 35°23' E 139°46'510.1
2018-Jul-11 17:30N 35°18' E 139°45'510.6
2018-Jul-11 17:00N 35°13' E 139°47'510.9
2018-Jul-11 16:30N 35°08' E 139°46'510.2
2018-Jul-11 16:00N 35°03' E 139°42'510.8
2018-Jul-11 15:30N 34°60' E 139°37'236 9.7
2018-Jul-10 15:10N 33°54' E 135°02'211.5
2018-Jul-10 15:00N 33°56' E 135°02'511.1
2018-Jul-10 14:30N 34°01' E 135°02'911.2
2018-Jul-10 13:41N 34°10' E 135°02'211.4
2018-Jul-10 13:30N 34°12' E 135°02'611.1
2018-Jul-10 13:00N 34°18' E 135°04'511.0
2018-Jul-10 12:30N 34°22' E 135°07'510.8
2018-Jul-10 12:00N 34°27' E 135°11'510.3
2018-Jul-10 11:30N 34°31' E 135°15'510.6
2018-Jul-10 11:00N 34°35' E 135°19'510.6
2018-Jul-10 10:30N 34°38' E 135°24'3 6.3
2018-Jul-10 09:59N 34°38' E 135°28'0 0.0
2018-Jul-10 00:22N 34°38' E 135°28'0 0.0
2018-Jul-09 23:58N 34°38' E 135°28'0 0.0
2018-Jul-09 22:34N 34°38' E 135°28'0 0.0
2018-Jul-09 22:28N 34°38' E 135°28'0 0.0
2018-Jul-09 21:22N 34°38' E 135°28'0 0.0
2018-Jul-09 20:52N 34°38' E 135°28'0 0.0
2018-Jul-09 20:28N 34°38' E 135°28'0 0.0
2018-Jul-09 19:58N 34°38' E 135°28'0 0.0
2018-Jul-09 19:22N 34°38' E 135°28'0 0.0
2018-Jul-09 18:58N 34°38' E 135°28'0 0.0
2018-Jul-09 18:28N 34°38' E 135°28'0 0.0
2018-Jul-09 17:52N 34°38' E 135°28'0 0.0
2018-Jul-09 17:28N 34°38' E 135°28'0 0.0
2018-Jul-09 16:58N 34°38' E 135°28'0 0.0
2018-Jul-09 16:28N 34°38' E 135°28'0 0.0
2018-Jul-09 15:58N 34°38' E 135°28'0 0.0
2018-Jul-09 15:28N 34°38' E 135°28'0 0.0
2018-Jul-09 14:40N 34°38' E 135°28'0 0.0
2018-Jul-09 14:16N 34°38' E 135°28'0 0.0
2018-Jul-09 13:58N 34°38' E 135°28'0 0.0
2018-Jul-09 13:28N 34°38' E 135°28'0 0.0
2018-Jul-09 12:28N 34°38' E 135°28'0 0.0
2018-Jul-09 07:16N 34°38' E 135°28'0 0.0
2018-Jul-09 06:55N 34°38' E 135°28'3 6.2
2018-Jul-09 06:30N 34°39' E 135°25'510.0
2018-Jul-09 06:00N 34°35' E 135°21'4 0.1
2018-Jul-07 23:20N 34°31' E 135°24'1 1.9
2018-Jul-07 23:00N 34°31' E 135°23'2 3.0
2018-Jul-07 22:23N 34°32' E 135°22'0 0.0
2018-Jul-07 21:59N 34°32' E 135°22'2 2.2
2018-Jul-07 20:57N 34°31' E 135°19'510.8
2018-Jul-07 20:30N 34°29' E 135°14'611.2
2018-Jul-07 19:56N 34°24' E 135°09'511.8
2018-Jul-07 19:29N 34°20' E 135°05'611.7
2018-Jul-07 19:00N 34°14' E 135°02'612.0
2018-Jul-07 18:30N 34°08' E 135°02'811.9
2018-Jul-07 17:51N 34°01' E 135°02'  

Dump ship's entire track history